Time;durP1;ratioP1;P1;durP2;ratioP2;P2;SDS_P1;SDS_P2;PMS_P1;PMS_P2;Temp;Humidity;BMP_temperature;BMP_pressure;BME280_temperature;BME280_humidity;BME280_pressure;Samples;Min_cycle;Max_cycle;Signal;HPM_P1;HPM_P2
2023/06/14 00:02:04;;;;;;;5.30;3.30;;;;;;;;;;5044071;28;20472;-56
2023/06/14 00:04:30;;;;;;;7.82;3.25;;;;;;;;;;5044047;28;20024;-56
2023/06/14 00:06:56;;;;;;;7.50;3.78;;;;;;;;;;5044411;28;20463;-56
2023/06/14 00:09:22;;;;;;;7.13;3.70;;;;;;;;;;5044360;28;20029;-54
2023/06/14 00:11:47;;;;;;;10.85;3.35;;;;;;;;;;5044009;28;20447;-58
2023/06/14 00:14:13;;;;;;;6.90;4.15;;;;;;;;;;5044394;28;20029;-57
2023/06/14 00:16:42;;;;;;;6.15;3.83;;;;;;;;;;5043891;28;20067;-57
2023/06/14 00:19:08;;;;;;;9.02;3.13;;;;;;;;;;5043991;28;20025;-57
2023/06/14 00:21:34;;;;;;;7.53;3.90;;;;;;;;;;5043680;28;20108;-56
2023/06/14 00:24:00;;;;;;;7.22;3.60;;;;;;;;;;5043952;28;20518;-54
2023/06/14 00:26:26;;;;;;;4.80;2.83;;;;;;;;;;5044131;28;20049;-52
2023/06/14 00:28:51;;;;;;;6.05;3.90;;;;;;;;;;5016447;28;20140;-56
2023/06/14 00:31:16;;;;;;;9.25;3.70;;;;;;;;;;5043506;28;20025;-57
2023/06/14 00:33:42;;;;;;;7.05;4.18;;;;;;;;;;5043664;28;20036;-54
2023/06/14 00:36:07;;;;;;;7.60;3.95;;;;;;;;;;5043747;28;20072;-60
2023/06/14 00:38:32;;;;;;;8.75;3.78;;;;;;;;;;5043388;28;20469;-55
2023/06/14 00:40:57;;;;;;;6.80;4.05;;;;;;;;;;5043308;28;20024;-59
2023/06/14 00:43:23;;;;;;;7.22;4.00;;;;;;;;;;5043592;28;20175;-57
2023/06/14 00:45:49;;;;;;;8.98;4.30;;;;;;;;;;5043500;28;20070;-62
2023/06/14 00:48:15;;;;;;;9.65;5.53;;;;;;;;;;5042009;28;20131;-59
2023/06/14 00:50:41;;;;;;;10.18;4.10;;;;;;;;;;5042306;28;20017;-58
2023/06/14 00:53:07;;;;;;;6.18;3.88;;;;;;;;;;5043399;28;20047;-58
2023/06/14 00:55:32;;;;;;;13.60;4.65;;;;;;;;;;5043310;28;20472;-57
2023/06/14 00:57:58;;;;;;;8.77;4.75;;;;;;;;;;5043275;28;20491;-56
2023/06/14 01:00:23;;;;;;;10.02;5.85;;;;;;;;;;5043161;28;20025;-56
2023/06/14 01:02:49;;;;;;;9.50;4.35;;;;;;;;;;5042747;28;20086;-60
2023/06/14 01:05:15;;;;;;;12.18;4.75;;;;;;;;;;5043115;28;20508;-60
2023/06/14 01:07:55;;;;;;;10.23;5.25;;;;;;;;;;5043108;28;20028;-57
2023/06/14 01:10:32;;;;;;;6.47;4.28;;;;;;;;;;5043127;28;20021;-53
2023/06/14 01:13:00;;;;;;;8.07;4.85;;;;;;;;;;5042422;28;20136;-60
2023/06/14 01:15:26;;;;;;;6.78;4.05;;;;;;;;;;5042515;28;20029;-60
2023/06/14 01:17:53;;;;;;;8.98;4.30;;;;;;;;;;5042836;28;20021;-57
2023/06/14 01:20:22;;;;;;;9.52;5.25;;;;;;;;;;5043191;28;20025;-60
2023/06/14 01:22:51;;;;;;;7.63;3.95;;;;;;;;;;5043023;28;20305;-58
2023/06/14 01:25:16;;;;;;;;;;;;;;;;;;5043036;28;20037;-59
2023/06/14 01:27:42;;;;;;;7.82;4.68;;;;;;;;;;5042057;28;19923;-60
2023/06/14 01:30:07;;;;;;;11.93;4.68;;;;;;;;;;5042337;28;20488;-61
2023/06/14 01:32:33;;;;;;;9.18;5.13;;;;;;;;;;5006808;28;20037;-56
2023/06/14 01:34:58;;;;;;;11.45;4.47;;;;;;;;;;5042843;28;20029;-58
2023/06/14 01:37:23;;;;;;;6.85;4.50;;;;;;;;;;5024713;28;20371;-58
2023/06/14 01:39:50;;;;;;;8.57;4.45;;;;;;;;;;5042506;28;20078;-59
2023/06/14 01:42:15;;;;;;;7.93;4.13;;;;;;;;;;5042566;28;20033;-56
2023/06/14 01:44:42;;;;;;;9.25;5.25;;;;;;;;;;5042241;28;20025;-55
2023/06/14 01:47:07;;;;;;;10.18;5.15;;;;;;;;;;5042916;28;20121;-58
2023/06/14 01:49:33;;;;;;;11.13;4.85;;;;;;;;;;5042377;28;20107;-59
2023/06/14 01:51:59;;;;;;;10.80;5.63;;;;;;;;;;5006583;28;20124;-56
2023/06/14 01:54:25;;;;;;;8.23;4.70;;;;;;;;;;5042241;28;20590;-59
2023/06/14 01:56:50;;;;;;;10.48;4.93;;;;;;;;;;5041605;28;20297;-56
2023/06/14 01:59:16;;;;;;;12.07;4.78;;;;;;;;;;5042412;28;20384;-56
2023/06/14 02:01:41;;;;;;;7.43;4.85;;;;;;;;;;5024006;28;20025;-59
2023/06/14 02:04:06;;;;;;;10.55;5.55;;;;;;;;;;5042225;28;20409;-57
2023/06/14 02:06:33;;;;;;;10.15;4.90;;;;;;;;;;5041980;28;20051;-62
2023/06/14 02:08:58;;;;;;;10.40;5.60;;;;;;;;;;5024237;28;20061;-61
2023/06/14 02:11:23;;;;;;;8.32;4.57;;;;;;;;;;5041802;28;20424;-59
2023/06/14 02:13:48;;;;;;;12.70;5.25;;;;;;;;;;5042089;28;20380;-60
2023/06/14 02:16:14;;;;;;;8.02;5.10;;;;;;;;;;5041880;28;20029;-55
2023/06/14 02:18:39;;;;;;;9.45;5.15;;;;;;;;;;5041669;28;20029;-56
2023/06/14 02:21:05;;;;;;;11.95;5.40;;;;;;;;;;5042152;28;20052;-55
2023/06/14 02:23:31;;;;;;;7.55;4.50;;;;;;;;;;5042079;28;20033;-59
2023/06/14 02:25:57;;;;;;;10.57;4.32;;;;;;;;;;5041826;28;20013;-56
2023/06/14 02:28:22;;;;;;;7.40;4.80;;;;;;;;;;5041310;28;20045;-58
2023/06/14 02:30:47;;;;;;;13.15;6.88;;;;;;;;;;5042012;28;20714;-55
2023/06/14 02:33:13;;;;;;;8.65;4.07;;;;;;;;;;5042139;28;20032;-55
2023/06/14 02:35:38;;;;;;;11.98;5.43;;;;;;;;;;5006172;28;20041;-61
2023/06/14 02:38:03;;;;;;;9.90;5.05;;;;;;;;;;5041473;28;20491;-57
2023/06/14 02:40:28;;;;;;;7.47;4.60;;;;;;;;;;5041673;28;20029;-56
2023/06/14 02:42:54;;;;;;;9.23;5.53;;;;;;;;;;5005996;28;20033;-58
2023/06/14 02:45:20;;;;;;;8.85;5.00;;;;;;;;;;5041807;28;20037;-59
2023/06/14 02:47:46;;;;;;;10.60;6.05;;;;;;;;;;5041451;28;20107;-56
2023/06/14 02:50:11;;;;;;;11.60;4.85;;;;;;;;;;5041769;28;20480;-59
2023/06/14 02:52:36;;;;;;;10.13;6.18;;;;;;;;;;5041465;28;20032;-57
2023/06/14 02:55:02;;;;;;;7.50;5.30;;;;;;;;;;5041728;28;20392;-54
2023/06/14 02:57:27;;;;;;;10.38;6.05;;;;;;;;;;5041446;28;20162;-58
2023/06/14 02:59:52;;;;;;;11.75;6.15;;;;;;;;;;5041456;28;20380;-54
2023/06/14 03:02:17;;;;;;;12.63;5.60;;;;;;;;;;5041589;28;20114;-59
2023/06/14 03:04:44;;;;;;;11.40;5.72;;;;;;;;;;5041403;28;20154;-57
2023/06/14 03:07:10;;;;;;;7.75;4.60;;;;;;;;;;5041648;28;20095;-56
2023/06/14 03:09:36;;;;;;;8.93;5.78;;;;;;;;;;5043418;28;20221;-55
2023/06/14 03:12:02;;;;;;;10.15;5.88;;;;;;;;;;5027451;28;20221;-56
2023/06/14 03:14:29;;;;;;;12.80;6.20;;;;;;;;;;5045198;28;20147;-55
2023/06/14 03:16:56;;;;;;;9.85;6.25;;;;;;;;;;5044840;28;20492;-60
2023/06/14 03:19:21;;;;;;;10.57;5.82;;;;;;;;;;5045253;28;20017;-58
2023/06/14 03:21:47;;;;;;;10.85;5.93;;;;;;;;;;5044866;28;20029;-55
2023/06/14 03:24:12;;;;;;;9.52;5.88;;;;;;;;;;5045126;28;20032;-55
2023/06/14 03:26:37;;;;;;;14.18;7.65;;;;;;;;;;5044555;28;20025;-57
2023/06/14 03:29:03;;;;;;;11.40;6.15;;;;;;;;;;5019542;28;20649;-57
2023/06/14 03:31:32;;;;;;;14.40;6.75;;;;;;;;;;5044923;28;20025;-60
2023/06/14 03:33:57;;;;;;;;;;;;;;;;;;5045375;28;20017;-56
2023/06/14 03:36:22;;;;;;;11.02;6.47;;;;;;;;;;5045021;28;19909;-57
2023/06/14 03:38:48;;;;;;;9.50;6.15;;;;;;;;;;5044604;28;20029;-56
2023/06/14 03:41:13;;;;;;;14.43;6.47;;;;;;;;;;5044666;28;20032;-58
2023/06/14 03:43:38;;;;;;;11.30;6.88;;;;;;;;;;5044612;28;20384;-53
2023/06/14 03:46:03;;;;;;;11.57;6.38;;;;;;;;;;5044769;28;20446;-58
2023/06/14 03:48:29;;;;;;;15.38;7.50;;;;;;;;;;5044374;28;20036;-57
2023/06/14 03:50:55;;;;;;;14.30;7.93;;;;;;;;;;5044521;28;20013;-57
2023/06/14 03:53:23;;;;;;;13.65;7.28;;;;;;;;;;5044672;28;20028;-55
2023/06/14 03:55:48;;;;;;;11.32;7.20;;;;;;;;;;5044035;28;20545;-58
2023/06/14 03:58:14;;;;;;;12.73;7.47;;;;;;;;;;5044627;28;20037;-60
2023/06/14 04:00:40;;;;;;;12.93;7.45;;;;;;;;;;5044530;28;20036;-59
2023/06/14 04:03:05;;;;;;;13.43;6.70;;;;;;;;;;5044722;28;20428;-59
2023/06/14 04:05:31;;;;;;;21.33;7.70;;;;;;;;;;5043997;28;20494;-59
2023/06/14 04:07:56;;;;;;;18.17;7.50;;;;;;;;;;5044272;28;20028;-57
2023/06/14 04:10:22;;;;;;;16.98;7.43;;;;;;;;;;5043797;28;20017;-59
2023/06/14 04:12:47;;;;;;;13.63;7.25;;;;;;;;;;5044154;28;20021;-56
2023/06/14 04:15:13;;;;;;;13.00;7.38;;;;;;;;;;5043903;28;20025;-59
2023/06/14 04:17:39;;;;;;;13.02;6.93;;;;;;;;;;5043710;28;20036;-59
2023/06/14 04:20:06;;;;;;;17.27;8.10;;;;;;;;;;5043440;28;20029;-58
2023/06/14 04:22:31;;;;;;;11.52;7.13;;;;;;;;;;5043595;28;20114;-58
2023/06/14 04:24:57;;;;;;;19.25;7.88;;;;;;;;;;5043701;28;20464;-56
2023/06/14 04:27:25;;;;;;;11.35;6.32;;;;;;;;;;5043229;28;20452;-54
2023/06/14 04:29:56;;;;;;;14.65;7.18;;;;;;;;;;5043712;28;20392;-56
2023/06/14 04:32:21;;;;;;;14.23;7.53;;;;;;;;;;5043628;28;20361;-54
2023/06/14 04:34:47;;;;;;;14.15;8.50;;;;;;;;;;5043587;28;20028;-57
2023/06/14 04:37:13;;;;;;;21.20;8.02;;;;;;;;;;5043474;28;20064;-52
2023/06/14 04:39:38;;;;;;;13.95;8.07;;;;;;;;;;5043421;28;20033;-55
2023/06/14 04:42:04;;;;;;;16.55;9.10;;;;;;;;;;5025769;28;20384;-52
2023/06/14 04:44:31;;;;;;;13.73;7.65;;;;;;;;;;5007693;28;20542;-55
2023/06/14 04:46:58;;;;;;;15.07;8.23;;;;;;;;;;5043439;28;20020;-55
2023/06/14 04:49:24;;;;;;;17.30;8.18;;;;;;;;;;5043295;28;20104;-57
2023/06/14 04:51:57;;;;;;;11.95;7.30;;;;;;;;;;5007343;28;20519;-55
2023/06/14 04:54:22;;;;;;;12.48;7.55;;;;;;;;;;5043256;28;20021;-53
2023/06/14 04:56:47;;;;;;;17.92;8.15;;;;;;;;;;5043279;28;20032;-57
2023/06/14 04:59:14;;;;;;;15.23;7.97;;;;;;;;;;5007255;28;20079;-54
2023/06/14 05:01:40;;;;;;;12.88;7.68;;;;;;;;;;5042972;28;20401;-56
2023/06/14 05:04:05;;;;;;;16.02;7.60;;;;;;;;;;5043539;28;20033;-57
2023/06/14 05:06:31;;;;;;;16.08;8.40;;;;;;;;;;5042850;28;20032;-57
2023/06/14 05:08:56;;;;;;;15.07;7.95;;;;;;;;;;5043197;28;20027;-55
2023/06/14 05:11:23;;;;;;;14.15;8.43;;;;;;;;;;5043097;28;20029;-55
2023/06/14 05:13:49;;;;;;;14.18;7.85;;;;;;;;;;5006770;28;20033;-54
2023/06/14 05:16:16;;;;;;;17.17;8.00;;;;;;;;;;5042754;28;20082;-56
2023/06/14 05:18:42;;;;;;;13.45;7.65;;;;;;;;;;5042824;28;20165;-59
2023/06/14 05:21:08;;;;;;;15.52;8.57;;;;;;;;;;5042862;28;20098;-55
2023/06/14 05:23:33;;;;;;;12.80;8.27;;;;;;;;;;5042892;28;20013;-55
2023/06/14 05:25:59;;;;;;;14.05;8.10;;;;;;;;;;5042544;28;20051;-58
2023/06/14 05:28:24;;;;;;;17.35;8.35;;;;;;;;;;5042537;28;20040;-52
2023/06/14 05:30:51;;;;;;;15.32;8.70;;;;;;;;;;5042346;28;20464;-51
2023/06/14 05:33:16;;;;;;;15.30;7.40;;;;;;;;;;5041849;28;20464;-52
2023/06/14 05:35:42;;;;;;;20.98;7.97;;;;;;;;;;5042090;28;20029;-55
2023/06/14 05:38:07;;;;;;;22.45;8.80;;;;;;;;;;5042324;28;20480;-58
2023/06/14 05:40:33;;;;;;;11.10;7.25;;;;;;;;;;5040806;28;20090;-59
2023/06/14 05:42:58;;;;;;;11.93;6.78;;;;;;;;;;5033565;28;20032;-54
2023/06/14 05:45:23;;;;;;;20.70;7.53;;;;;;;;;;5036639;28;20480;-60
2023/06/14 05:47:49;;;;;;;14.88;7.40;;;;;;;;;;5038930;28;20278;-58
2023/06/14 05:50:14;;;;;;;14.15;8.52;;;;;;;;;;5041956;28;20025;-54
2023/06/14 05:52:39;;;;;;;12.60;6.82;;;;;;;;;;5034949;28;20461;-60
2023/06/14 05:55:05;;;;;;;13.73;7.38;;;;;;;;;;5034115;28;20024;-56
2023/06/14 05:57:31;;;;;;;16.58;8.00;;;;;;;;;;5037221;28;20033;-55
2023/06/14 05:59:56;;;;;;;16.20;6.70;;;;;;;;;;5035303;28;20067;-59
2023/06/14 06:02:21;;;;;;;15.93;7.60;;;;;;;;;;5035555;28;20022;-55
2023/06/14 06:04:47;;;;;;;10.93;6.53;;;;;;;;;;5038686;28;20258;-59
2023/06/14 06:07:12;;;;;;;15.25;6.95;;;;;;;;;;4988437;28;20344;-55
2023/06/14 06:09:37;;;;;;;11.50;6.45;;;;;;;;;;5041164;28;20035;-60
2023/06/14 06:12:03;;;;;;;12.23;6.22;;;;;;;;;;5036306;28;20029;-55
2023/06/14 06:14:28;;;;;;;13.35;6.65;;;;;;;;;;5024473;28;20029;-56
2023/06/14 06:16:54;;;;;;;10.65;6.00;;;;;;;;;;5036865;28;20032;-57
2023/06/14 06:19:19;;;;;;;11.15;6.07;;;;;;;;;;5031881;28;20048;-57
2023/06/14 06:21:45;;;;;;;9.93;5.53;;;;;;;;;;5029455;28;20066;-59
2023/06/14 06:24:10;;;;;;;13.50;5.27;;;;;;;;;;5037299;28;20591;-55
2023/06/14 06:26:36;;;;;;;12.00;5.22;;;;;;;;;;5026995;28;20230;-61
2023/06/14 06:29:01;;;;;;;8.05;5.35;;;;;;;;;;5027904;28;20057;-58
2023/06/14 06:31:27;;;;;;;9.85;4.38;;;;;;;;;;5061313;28;20021;-54
2023/06/14 06:33:53;;;;;;;11.13;5.05;;;;;;;;;;5061185;28;20490;-57
2023/06/14 06:36:19;;;;;;;10.90;4.63;;;;;;;;;;5048894;28;20389;-55
2023/06/14 06:38:45;;;;;;;10.85;4.43;;;;;;;;;;5021148;28;20026;-57
2023/06/14 06:41:10;;;;;;;11.52;5.57;;;;;;;;;;5026807;28;20027;-58
2023/06/14 06:43:35;;;;;;;7.70;4.93;;;;;;;;;;5043577;28;20052;-55
2023/06/14 06:46:01;;;;;;;8.93;5.47;;;;;;;;;;5035365;28;20283;-55
2023/06/14 06:48:26;;;;;;;10.80;5.00;;;;;;;;;;5060910;28;20429;-55
2023/06/14 06:50:52;;;;;;;11.43;5.57;;;;;;;;;;5059901;28;20035;-54
2023/06/14 06:53:18;;;;;;;7.05;4.63;;;;;;;;;;5060015;28;20021;-58
2023/06/14 06:55:43;;;;;;;14.77;5.55;;;;;;;;;;5047056;28;20029;-60
2023/06/14 06:58:09;;;;;;;13.07;4.80;;;;;;;;;;5026167;28;20028;-58
2023/06/14 07:00:34;;;;;;;12.43;5.30;;;;;;;;;;5035439;28;20021;-53
2023/06/14 07:03:00;;;;;;;9.95;4.80;;;;;;;;;;5043407;28;20721;-59
2023/06/14 07:05:25;;;;;;;8.70;4.00;;;;;;;;;;5023310;28;20053;-54
2023/06/14 07:07:50;;;;;;;7.07;4.55;;;;;;;;;;5041843;28;20020;-57
2023/06/14 07:10:16;;;;;;;10.50;5.45;;;;;;;;;;5037186;28;20025;-57
2023/06/14 07:12:41;;;;;;;8.88;4.70;;;;;;;;;;5039625;28;20029;-59
2023/06/14 07:15:07;;;;;;;6.67;3.83;;;;;;;;;;5039877;28;20511;-55
2023/06/14 07:17:33;;;;;;;7.78;5.05;;;;;;;;;;5008933;28;20253;-55
2023/06/14 07:19:59;;;;;;;8.40;4.45;;;;;;;;;;5031765;28;20096;-58
2023/06/14 07:22:24;;;;;;;8.07;3.58;;;;;;;;;;5043522;28;20127;-60
2023/06/14 07:24:49;;;;;;;8.03;4.27;;;;;;;;;;5043079;28;20033;-58
2023/06/14 07:27:14;;;;;;;6.13;4.10;;;;;;;;;;5042574;28;20273;-57
2023/06/14 07:29:40;;;;;;;5.50;3.87;;;;;;;;;;5042028;28;20298;-55
2023/06/14 07:32:05;;;;;;;6.63;4.15;;;;;;;;;;5041051;28;20380;-59
2023/06/14 07:34:31;;;;;;;8.20;3.65;;;;;;;;;;5040496;28;20107;-53
2023/06/14 07:36:56;;;;;;;5.50;3.97;;;;;;;;;;5034254;28;20484;-57
2023/06/14 07:39:21;;;;;;;9.77;4.13;;;;;;;;;;5040805;28;20029;-57
2023/06/14 07:41:47;;;;;;;9.45;4.47;;;;;;;;;;5043761;28;20813;-54
2023/06/14 07:44:13;;;;;;;7.60;4.53;;;;;;;;;;5037796;28;20020;-56
2023/06/14 07:46:38;;;;;;;7.60;4.45;;;;;;;;;;5040134;28;20020;-60
2023/06/14 07:49:04;;;;;;;10.07;5.00;;;;;;;;;;5037436;28;20069;-59
2023/06/14 07:51:30;;;;;;;6.32;4.18;;;;;;;;;;5041036;28;20104;-57
2023/06/14 07:53:56;;;;;;;7.65;3.67;;;;;;;;;;5037813;28;20143;-59
2023/06/14 07:56:21;;;;;;;6.13;3.63;;;;;;;;;;5038503;28;20029;-57
2023/06/14 07:58:47;;;;;;;7.15;3.67;;;;;;;;;;5033667;28;20025;-60
2023/06/14 08:01:13;;;;;;;3.80;2.90;;;;;;;;;;4987511;28;20029;-57
2023/06/14 08:03:38;;;;;;;10.43;4.20;;;;;;;;;;5039001;28;20127;-62
2023/06/14 08:06:04;;;;;;;7.53;3.10;;;;;;;;;;5043915;28;20107;-57
2023/06/14 08:08:29;;;;;;;4.90;3.42;;;;;;;;;;5037160;28;20033;-57
2023/06/14 08:10:54;;;;;;;7.15;3.20;;;;;;;;;;5042481;28;20123;-57
2023/06/14 08:13:20;;;;;;;9.02;3.10;;;;;;;;;;5044018;28;20044;-61
2023/06/14 08:15:45;;;;;;;6.35;3.15;;;;;;;;;;5044100;28;20034;-56
2023/06/14 08:18:10;;;;;;;7.15;3.53;;;;;;;;;;5040138;28;20126;-56
2023/06/14 08:20:36;;;;;;;7.17;2.80;;;;;;;;;;5036059;28;20506;-61
2023/06/14 08:23:04;;;;;;;4.15;2.95;;;;;;;;;;5038905;28;20262;-60
2023/06/14 08:25:30;;;;;;;7.30;2.57;;;;;;;;;;5039043;28;20162;-59
2023/06/14 08:27:55;;;;;;;4.53;2.83;;;;;;;;;;5038749;28;20602;-60
2023/06/14 08:30:21;;;;;;;4.40;2.08;;;;;;;;;;5037438;28;20033;-56
2023/06/14 08:32:46;;;;;;;6.13;3.03;;;;;;;;;;5045506;28;20483;-59
2023/06/14 08:35:12;;;;;;;2.73;1.83;;;;;;;;;;5045069;28;20017;-54
2023/06/14 08:37:43;;;;;;;3.58;2.10;;;;;;;;;;5041752;28;20122;-52
2023/06/14 08:40:19;;;;;;;3.03;2.08;;;;;;;;;;5039837;28;20075;-60
2023/06/14 08:42:45;;;;;;;4.65;2.30;;;;;;;;;;5040097;28;20522;-58
2023/06/14 08:45:10;;;;;;;7.32;2.72;;;;;;;;;;5038585;28;20028;-61
2023/06/14 08:47:36;;;;;;;3.73;2.50;;;;;;;;;;5041584;28;20021;-56
2023/06/14 08:50:03;;;;;;;7.20;2.60;;;;;;;;;;5031840;28;20265;-58
2023/06/14 08:52:33;;;;;;;4.85;2.80;;;;;;;;;;5040536;28;20314;-59
2023/06/14 08:54:59;;;;;;;8.20;2.97;;;;;;;;;;5028857;28;20037;-59
2023/06/14 08:57:30;;;;;;;5.55;2.53;;;;;;;;;;5036773;28;20057;-56
2023/06/14 08:59:56;;;;;;;4.43;2.47;;;;;;;;;;5035954;28;20044;-57
2023/06/14 09:02:22;;;;;;;14.18;3.25;;;;;;;;;;5042381;28;20037;-59
2023/06/14 09:04:49;;;;;;;4.03;2.65;;;;;;;;;;5038556;28;20029;-60
2023/06/14 09:07:14;;;;;;;315.83;23.60;;;;;;;;;;5037346;28;20106;-60
2023/06/14 09:09:41;;;;;;;3.77;2.33;;;;;;;;;;5038673;28;20017;-55
2023/06/14 09:12:10;;;;;;;7.25;3.03;;;;;;;;;;5037397;28;20262;-56
2023/06/14 09:14:38;;;;;;;7.53;2.70;;;;;;;;;;5031363;28;20500;-57
2023/06/14 09:17:03;;;;;;;3.40;2.30;;;;;;;;;;5032482;28;20028;-60
2023/06/14 09:19:29;;;;;;;4.00;2.20;;;;;;;;;;5024845;28;20033;-61
2023/06/14 09:21:55;;;;;;;5.07;2.20;;;;;;;;;;5059697;28;20029;-59
2023/06/14 09:24:20;;;;;;;3.70;2.67;;;;;;;;;;5024957;28;20514;-60
2023/06/14 09:26:50;;;;;;;5.35;2.30;;;;;;;;;;5061241;28;20025;-58
2023/06/14 09:29:16;;;;;;;4.15;2.20;;;;;;;;;;5039910;28;20143;-61
2023/06/14 09:31:42;;;;;;;4.85;2.72;;;;;;;;;;5039259;28;20262;-59
2023/06/14 09:34:08;;;;;;;5.90;2.30;;;;;;;;;;5037401;28;20032;-59
2023/06/14 09:36:34;;;;;;;4.72;2.67;;;;;;;;;;5040343;28;20021;-57
2023/06/14 09:39:00;;;;;;;6.77;2.30;;;;;;;;;;5043076;28;20240;-55
2023/06/14 09:41:32;;;;;;;2.83;2.30;;;;;;;;;;5062973;28;20632;-57
2023/06/14 09:44:00;;;;;;;5.20;2.88;;;;;;;;;;5063124;28;20435;-60
2023/06/14 09:46:26;;;;;;;7.47;2.50;;;;;;;;;;5063078;28;20109;-61
2023/06/14 09:48:52;;;;;;;4.32;2.40;;;;;;;;;;5045944;28;20275;-59
2023/06/14 09:51:18;;;;;;;5.60;2.30;;;;;;;;;;5040043;28;20233;-59
2023/06/14 09:53:43;;;;;;;3.10;2.20;;;;;;;;;;5031029;28;20250;-60
2023/06/14 09:56:10;;;;;;;4.00;2.50;;;;;;;;;;5037426;28;20031;-57
2023/06/14 09:58:37;;;;;;;4.15;2.40;;;;;;;;;;5038836;28;20029;-55
2023/06/14 10:01:03;;;;;;;7.05;3.72;;;;;;;;;;5033134;28;20020;-54
2023/06/14 10:03:29;;;;;;;4.75;3.10;;;;;;;;;;5035821;28;20040;-57
2023/06/14 10:05:55;;;;;;;4.60;2.70;;;;;;;;;;5032139;28;20032;-61
2023/06/14 10:08:25;;;;;;;6.25;2.33;;;;;;;;;;5035372;28;20025;-52
2023/06/14 10:10:51;;;;;;;5.68;2.50;;;;;;;;;;5037156;28;20075;-57
2023/06/14 10:13:16;;;;;;;4.72;3.00;;;;;;;;;;5017522;28;20009;-56
2023/06/14 10:16:00;;;;;;;3.20;2.63;;;;;;;;;;5032630;28;20083;-58
2023/06/14 10:18:33;;;;;;;7.63;2.92;;;;;;;;;;5032732;28;20120;-56
2023/06/14 10:21:01;;;;;;;3.92;2.70;;;;;;;;;;5031901;28;20805;-59
2023/06/14 10:23:28;;;;;;;3.25;2.38;;;;;;;;;;5032570;28;20021;-54
2023/06/14 10:25:57;;;;;;;3.38;2.50;;;;;;;;;;4988296;28;20040;-54
2023/06/14 10:28:24;;;;;;;5.30;2.42;;;;;;;;;;5011274;28;20142;-57
2023/06/14 10:31:08;;;;;;;8.70;2.72;;;;;;;;;;5032710;28;20044;-54
2023/06/14 10:33:34;;;;;;;3.72;2.70;;;;;;;;;;5040510;28;20111;-56
2023/06/14 10:36:18;;;;;;;6.63;2.70;;;;;;;;;;5041832;28;20036;-57
2023/06/14 10:38:44;;;;;;;5.70;2.40;;;;;;;;;;5053560;28;20112;-60
2023/06/14 10:41:10;;;;;;;6.32;2.25;;;;;;;;;;5042258;28;20105;-56
2023/06/14 10:43:35;;;;;;;8.15;2.58;;;;;;;;;;5017642;28;20461;-57
2023/06/14 10:46:22;;;;;;;4.03;2.67;;;;;;;;;;5039704;28;20377;-61
2023/06/14 10:48:48;;;;;;;5.00;2.90;;;;;;;;;;5039457;28;20356;-57
2023/06/14 10:51:20;;;;;;;3.05;2.42;;;;;;;;;;5038838;28;20108;-55
2023/06/14 10:53:46;;;;;;;3.88;2.33;;;;;;;;;;5039221;28;20150;-55
2023/06/14 10:56:24;;;;;;;3.22;2.42;;;;;;;;;;5040926;28;20021;-54
2023/06/14 10:58:50;;;;;;;8.15;2.45;;;;;;;;;;5038397;28;20115;-56
2023/06/14 11:01:16;;;;;;;5.35;2.67;;;;;;;;;;5038656;28;20167;-55
2023/06/14 11:03:52;;;;;;;9.63;2.92;;;;;;;;;;5040516;28;20069;-54
2023/06/14 11:06:21;;;;;;;4.97;2.45;;;;;;;;;;5041344;28;20033;-59
2023/06/14 11:08:46;;;;;;;5.53;2.45;;;;;;;;;;5039562;28;20343;-59
2023/06/14 11:11:12;;;;;;;13.10;2.93;;;;;;;;;;5037675;28;20777;-57
2023/06/14 11:13:42;;;;;;;7.97;2.55;;;;;;;;;;5038587;28;20071;-57
2023/06/14 11:16:17;;;;;;;10.77;2.58;;;;;;;;;;5039163;28;20025;-54
2023/06/14 11:18:43;;;;;;;13.32;2.80;;;;;;;;;;5037445;28;20052;-54
2023/06/14 11:21:09;;;;;;;10.50;2.90;;;;;;;;;;5031765;28;20017;-54
2023/06/14 11:23:34;;;;;;;8.50;2.60;;;;;;;;;;5035954;28;20076;-54
2023/06/14 11:26:00;;;;;;;4.57;2.70;;;;;;;;;;5030803;28;20061;-57
2023/06/14 11:28:35;;;;;;;9.13;2.78;;;;;;;;;;5027943;28;20041;-54
2023/06/14 11:31:00;;;;;;;8.73;2.22;;;;;;;;;;5026613;28;20033;-56
2023/06/14 11:33:26;;;;;;;4.88;2.50;;;;;;;;;;5034463;28;20032;-58
2023/06/14 11:35:52;;;;;;;10.63;2.85;;;;;;;;;;4990250;28;20068;-56
2023/06/14 11:38:17;;;;;;;6.97;2.63;;;;;;;;;;5044638;28;20391;-55
2023/06/14 11:40:42;;;;;;;24.42;4.20;;;;;;;;;;5046324;28;20017;-59
2023/06/14 11:43:08;;;;;;;9.13;2.70;;;;;;;;;;5039148;28;20018;-59
2023/06/14 11:45:33;;;;;;;5.23;2.60;;;;;;;;;;5035187;28;20016;-55
2023/06/14 11:47:58;;;;;;;5.83;2.77;;;;;;;;;;5048086;28;20320;-60
2023/06/14 11:50:24;;;;;;;9.32;2.63;;;;;;;;;;5048314;28;20028;-55
2023/06/14 11:53:06;;;;;;;3.95;2.72;;;;;;;;;;5039465;28;20033;-60
2023/06/14 11:55:31;;;;;;;4.40;2.40;;;;;;;;;;5019034;28;20531;-55
2023/06/14 11:57:57;;;;;;;5.07;2.67;;;;;;;;;;5041373;28;20043;-56
2023/06/14 12:00:27;;;;;;;3.65;2.40;;;;;;;;;;5041445;28;20479;-58
2023/06/14 12:02:55;;;;;;;10.05;2.60;;;;;;;;;;5040887;28;20025;-55
2023/06/14 12:05:21;;;;;;;8.82;2.28;;;;;;;;;;5042981;28;20107;-60
2023/06/14 12:07:46;;;;;;;5.28;2.38;;;;;;;;;;5041402;28;20541;-58
2023/06/14 12:10:13;;;;;;;6.07;2.60;;;;;;;;;;5042002;28;20025;-56
2023/06/14 12:12:40;;;;;;;17.67;2.70;;;;;;;;;;5039578;28;20064;-55
2023/06/14 12:15:09;;;;;;;6.13;2.72;;;;;;;;;;5032060;28;20020;-58
2023/06/14 12:17:41;;;;;;;8.68;2.60;;;;;;;;;;5038952;28;20499;-53
2023/06/14 12:20:10;;;;;;;8.02;3.42;;;;;;;;;;5035707;28;20049;-61
2023/06/14 12:22:36;;;;;;;3.10;2.45;;;;;;;;;;5035049;28;20021;-57
2023/06/14 12:25:03;;;;;;;10.00;3.40;;;;;;;;;;5037528;28;20479;-55
2023/06/14 12:27:28;;;;;;;4.68;2.53;;;;;;;;;;5036855;28;20266;-56
2023/06/14 12:30:03;;;;;;;9.20;3.40;;;;;;;;;;5039118;28;20036;-55
2023/06/14 12:32:29;;;;;;;8.20;2.65;;;;;;;;;;5036962;28;20082;-59
2023/06/14 12:34:54;;;;;;;10.30;4.15;;;;;;;;;;5037791;28;20025;-59
2023/06/14 12:37:20;;;;;;;16.25;5.40;;;;;;;;;;5039129;28;20033;-59
2023/06/14 12:39:45;;;;;;;5.78;2.47;;;;;;;;;;4997992;28;20253;-56
2023/06/14 12:42:11;;;;;;;4.72;2.58;;;;;;;;;;5040157;28;20029;-55
2023/06/14 12:44:40;;;;;;;6.50;2.47;;;;;;;;;;5037916;28;20040;-54
2023/06/14 12:47:06;;;;;;;6.97;2.63;;;;;;;;;;5038758;28;20029;-60
2023/06/14 12:49:31;;;;;;;10.10;3.08;;;;;;;;;;4986853;28;20037;-58
2023/06/14 12:51:56;;;;;;;5.30;2.67;;;;;;;;;;5039954;28;20388;-60
2023/06/14 12:54:25;;;;;;;4.60;2.70;;;;;;;;;;5042554;28;20254;-58
2023/06/14 12:56:51;;;;;;;12.15;2.70;;;;;;;;;;5037066;28;20020;-55
2023/06/14 12:59:16;;;;;;;5.00;2.70;;;;;;;;;;5038615;28;20025;-56
2023/06/14 13:01:42;;;;;;;6.23;3.03;;;;;;;;;;5036461;28;20029;-59
2023/06/14 13:04:07;;;;;;;4.63;2.80;;;;;;;;;;5034586;28;21099;-54
2023/06/14 13:06:32;;;;;;;5.93;2.20;;;;;;;;;;5037362;28;20294;-57
2023/06/14 13:08:58;;;;;;;6.20;2.53;;;;;;;;;;5035425;28;20369;-57
2023/06/14 13:11:24;;;;;;;7.57;2.78;;;;;;;;;;5037292;28;20048;-57
2023/06/14 13:13:49;;;;;;;8.13;2.80;;;;;;;;;;5036305;28;20025;-55
2023/06/14 13:16:14;;;;;;;9.57;3.25;;;;;;;;;;5031448;28;20290;-57
2023/06/14 13:18:40;;;;;;;3.87;2.50;;;;;;;;;;5034726;28;20041;-54
2023/06/14 13:21:05;;;;;;;5.43;2.78;;;;;;;;;;4999353;28;20267;-57
2023/06/14 13:23:30;;;;;;;3.47;2.30;;;;;;;;;;5034123;28;20272;-57
2023/06/14 13:25:56;;;;;;;4.40;2.53;;;;;;;;;;5039391;28;20041;-56
2023/06/14 13:28:21;;;;;;;8.13;2.70;;;;;;;;;;5038318;28;20787;-54
2023/06/14 13:30:47;;;;;;;4.80;2.53;;;;;;;;;;5037773;28;20095;-56
2023/06/14 13:33:13;;;;;;;5.32;2.45;;;;;;;;;;5038866;28;20503;-53
2023/06/14 13:35:38;;;;;;;5.75;2.35;;;;;;;;;;5032178;28;20434;-55
2023/06/14 13:38:03;;;;;;;5.07;2.57;;;;;;;;;;5028900;28;20025;-56
2023/06/14 13:40:29;;;;;;;9.18;2.95;;;;;;;;;;5034198;28;20258;-56
2023/06/14 13:42:54;;;;;;;7.23;2.50;;;;;;;;;;5014125;28;20045;-54
2023/06/14 13:45:20;;;;;;;6.20;2.50;;;;;;;;;;5040963;28;20139;-60
2023/06/14 13:47:48;;;;;;;5.03;2.80;;;;;;;;;;5038166;28;20355;-54
2023/06/14 13:50:13;;;;;;;6.93;3.15;;;;;;;;;;5021062;28;20107;-56
2023/06/14 13:52:39;;;;;;;9.63;3.20;;;;;;;;;;5032235;28;20058;-54
2023/06/14 13:55:05;;;;;;;3.75;1.95;;;;;;;;;;5038113;28;20035;-55
2023/06/14 13:57:30;;;;;;;9.00;2.80;;;;;;;;;;5038522;28;20066;-54
2023/06/14 14:00:00;;;;;;;4.72;2.22;;;;;;;;;;5040395;28;20048;-57
2023/06/14 14:02:26;;;;;;;6.43;2.60;;;;;;;;;;5039725;28;20025;-54
2023/06/14 14:04:53;;;;;;;12.65;3.20;;;;;;;;;;5022022;28;20021;-53
2023/06/14 14:07:19;;;;;;;4.47;2.75;;;;;;;;;;5024819;28;20021;-57
2023/06/14 14:09:44;;;;;;;5.20;2.50;;;;;;;;;;5033700;28;20052;-61
2023/06/14 14:12:10;;;;;;;9.48;3.28;;;;;;;;;;5040636;28;20686;-57
2023/06/14 14:14:35;;;;;;;3.97;2.80;;;;;;;;;;5038133;28;20111;-58
2023/06/14 14:17:00;;;;;;;4.37;2.27;;;;;;;;;;5039396;28;20064;-59
2023/06/14 14:19:26;;;;;;;14.80;2.60;;;;;;;;;;5038212;28;20341;-56
2023/06/14 14:21:53;;;;;;;16.83;3.13;;;;;;;;;;5036081;28;20099;-57
2023/06/14 14:24:18;;;;;;;17.00;3.40;;;;;;;;;;5017415;28;20263;-56
2023/06/14 14:26:43;;;;;;;17.93;3.60;;;;;;;;;;5033481;28;20396;-60
2023/06/14 14:29:11;;;;;;;8.13;2.55;;;;;;;;;;5031347;28;20304;-59
2023/06/14 14:31:36;;;;;;;11.70;3.15;;;;;;;;;;5036551;28;20481;-54
2023/06/14 14:34:02;;;;;;;4.65;2.35;;;;;;;;;;5036629;28;20086;-55